sensor_id;sensor_type;location;lat;lon;timestamp;P1;durP1;ratioP1;P2;durP2;ratioP2
63394;SDS011;49531;-34.520;150.798;2023-07-13T00:02:15;1.13;;;0.90;;
63394;SDS011;49531;-34.520;150.798;2023-07-13T00:04:43;2.67;;;0.98;;
63394;SDS011;49531;-34.520;150.798;2023-07-13T00:07:10;0.68;;;0.68;;
63394;SDS011;49531;-34.520;150.798;2023-07-13T00:09:40;1.17;;;0.98;;
63394;SDS011;49531;-34.520;150.798;2023-07-13T00:12:21;0.82;;;0.82;;
63394;SDS011;49531;-34.520;150.798;2023-07-13T00:14:51;0.80;;;0.80;;
63394;SDS011;49531;-34.520;150.798;2023-07-13T00:17:18;1.20;;;0.90;;
63394;SDS011;49531;-34.520;150.798;2023-07-13T00:19:45;1.02;;;0.90;;
63394;SDS011;49531;-34.520;150.798;2023-07-13T00:22:12;0.98;;;0.88;;
63394;SDS011;49531;-34.520;150.798;2023-07-13T00:24:39;0.98;;;0.70;;
63394;SDS011;49531;-34.520;150.798;2023-07-13T00:27:08;3.03;;;1.08;;
63394;SDS011;49531;-34.520;150.798;2023-07-13T00:29:35;1.10;;;1.00;;
63394;SDS011;49531;-34.520;150.798;2023-07-13T00:32:03;1.30;;;0.90;;
63394;SDS011;49531;-34.520;150.798;2023-07-13T00:34:32;1.67;;;1.00;;
63394;SDS011;49531;-34.520;150.798;2023-07-13T00:36:59;0.85;;;0.82;;
63394;SDS011;49531;-34.520;150.798;2023-07-13T00:39:27;1.00;;;0.90;;
63394;SDS011;49531;-34.520;150.798;2023-07-13T00:41:54;1.10;;;1.00;;
63394;SDS011;49531;-34.520;150.798;2023-07-13T00:44:21;1.17;;;0.90;;
63394;SDS011;49531;-34.520;150.798;2023-07-13T00:46:49;1.13;;;0.93;;
63394;SDS011;49531;-34.520;150.798;2023-07-13T00:49:18;1.20;;;1.10;;
63394;SDS011;49531;-34.520;150.798;2023-07-13T00:51:51;1.10;;;1.00;;
63394;SDS011;49531;-34.520;150.798;2023-07-13T00:54:23;1.95;;;1.60;;
63394;SDS011;49531;-34.520;150.798;2023-07-13T00:56:53;1.65;;;1.45;;
63394;SDS011;49531;-34.520;150.798;2023-07-13T00:59:24;2.95;;;1.40;;
63394;SDS011;49531;-34.520;150.798;2023-07-13T01:01:52;1.60;;;1.20;;
63394;SDS011;49531;-34.520;150.798;2023-07-13T01:04:20;9.45;;;1.50;;
63394;SDS011;49531;-34.520;150.798;2023-07-13T01:06:49;1.17;;;0.98;;
63394;SDS011;49531;-34.520;150.798;2023-07-13T01:09:17;0.98;;;0.90;;
63394;SDS011;49531;-34.520;150.798;2023-07-13T01:11:45;1.02;;;0.90;;
63394;SDS011;49531;-34.520;150.798;2023-07-13T01:14:13;1.00;;;0.90;;
63394;SDS011;49531;-34.520;150.798;2023-07-13T01:16:42;1.33;;;1.10;;
63394;SDS011;49531;-34.520;150.798;2023-07-13T01:19:27;7.10;;;1.05;;
63394;SDS011;49531;-34.520;150.798;2023-07-13T01:22:07;1.60;;;0.85;;
63394;SDS011;49531;-34.520;150.798;2023-07-13T01:24:38;3.33;;;1.00;;
63394;SDS011;49531;-34.520;150.798;2023-07-13T01:27:07;2.67;;;0.80;;
63394;SDS011;49531;-34.520;150.798;2023-07-13T01:29:36;2.45;;;0.85;;
63394;SDS011;49531;-34.520;150.798;2023-07-13T01:32:08;1.02;;;0.80;;
63394;SDS011;49531;-34.520;150.798;2023-07-13T01:34:37;3.15;;;0.80;;
63394;SDS011;49531;-34.520;150.798;2023-07-13T01:37:08;1.85;;;1.02;;
63394;SDS011;49531;-34.520;150.798;2023-07-13T01:39:35;1.65;;;1.02;;
63394;SDS011;49531;-34.520;150.798;2023-07-13T01:42:03;1.15;;;0.95;;
63394;SDS011;49531;-34.520;150.798;2023-07-13T01:44:30;1.38;;;0.90;;
63394;SDS011;49531;-34.520;150.798;2023-07-13T01:46:58;2.20;;;0.90;;
63394;SDS011;49531;-34.520;150.798;2023-07-13T01:49:25;2.45;;;0.80;;
63394;SDS011;49531;-34.520;150.798;2023-07-13T01:51:52;1.23;;;0.80;;
63394;SDS011;49531;-34.520;150.798;2023-07-13T01:54:20;2.47;;;0.90;;
63394;SDS011;49531;-34.520;150.798;2023-07-13T01:56:47;2.05;;;1.00;;
63394;SDS011;49531;-34.520;150.798;2023-07-13T01:59:14;1.52;;;0.90;;
63394;SDS011;49531;-34.520;150.798;2023-07-13T02:01:41;1.42;;;0.93;;
63394;SDS011;49531;-34.520;150.798;2023-07-13T02:04:08;1.77;;;1.00;;
63394;SDS011;49531;-34.520;150.798;2023-07-13T02:06:36;3.40;;;1.20;;
63394;SDS011;49531;-34.520;150.798;2023-07-13T02:09:03;2.83;;;1.00;;
63394;SDS011;49531;-34.520;150.798;2023-07-13T02:11:32;2.45;;;0.90;;
63394;SDS011;49531;-34.520;150.798;2023-07-13T02:14:00;1.58;;;0.90;;
63394;SDS011;49531;-34.520;150.798;2023-07-13T02:16:28;1.33;;;0.93;;
63394;SDS011;49531;-34.520;150.798;2023-07-13T02:18:56;1.23;;;1.02;;
63394;SDS011;49531;-34.520;150.798;2023-07-13T02:21:25;2.47;;;1.00;;
63394;SDS011;49531;-34.520;150.798;2023-07-13T02:23:53;1.52;;;0.90;;
63394;SDS011;49531;-34.520;150.798;2023-07-13T02:26:20;1.13;;;1.02;;
63394;SDS011;49531;-34.520;150.798;2023-07-13T02:28:47;4.35;;;0.90;;
63394;SDS011;49531;-34.520;150.798;2023-07-13T02:31:15;1.23;;;0.90;;
63394;SDS011;49531;-34.520;150.798;2023-07-13T02:33:42;1.98;;;1.10;;
63394;SDS011;49531;-34.520;150.798;2023-07-13T02:36:10;1.13;;;0.90;;
63394;SDS011;49531;-34.520;150.798;2023-07-13T02:38:39;1.30;;;1.00;;
63394;SDS011;49531;-34.520;150.798;2023-07-13T02:41:06;1.02;;;0.93;;
63394;SDS011;49531;-34.520;150.798;2023-07-13T02:43:34;1.30;;;0.95;;
63394;SDS011;49531;-34.520;150.798;2023-07-13T02:46:03;3.03;;;1.35;;
63394;SDS011;49531;-34.520;150.798;2023-07-13T02:48:33;2.15;;;1.17;;
63394;SDS011;49531;-34.520;150.798;2023-07-13T02:51:01;1.77;;;1.17;;
63394;SDS011;49531;-34.520;150.798;2023-07-13T02:53:29;3.58;;;1.30;;
63394;SDS011;49531;-34.520;150.798;2023-07-13T02:55:56;3.90;;;1.20;;
63394;SDS011;49531;-34.520;150.798;2023-07-13T02:58:23;1.10;;;1.00;;
63394;SDS011;49531;-34.520;150.798;2023-07-13T03:00:51;3.25;;;1.20;;
63394;SDS011;49531;-34.520;150.798;2023-07-13T03:03:24;1.60;;;1.05;;
63394;SDS011;49531;-34.520;150.798;2023-07-13T03:05:57;1.65;;;1.10;;
63394;SDS011;49531;-34.520;150.798;2023-07-13T03:08:30;1.10;;;1.00;;
63394;SDS011;49531;-34.520;150.798;2023-07-13T03:11:00;1.20;;;1.10;;
63394;SDS011;49531;-34.520;150.798;2023-07-13T03:13:30;2.08;;;1.10;;
63394;SDS011;49531;-34.520;150.798;2023-07-13T03:15:58;1.27;;;0.98;;
63394;SDS011;49531;-34.520;150.798;2023-07-13T03:18:26;1.13;;;0.90;;
63394;SDS011;49531;-34.520;150.798;2023-07-13T03:20:53;1.00;;;1.00;;
63394;SDS011;49531;-34.520;150.798;2023-07-13T03:23:21;1.63;;;1.00;;
63394;SDS011;49531;-34.520;150.798;2023-07-13T03:25:48;1.35;;;1.00;;
63394;SDS011;49531;-34.520;150.798;2023-07-13T03:28:16;1.65;;;1.10;;
63394;SDS011;49531;-34.520;150.798;2023-07-13T03:30:43;1.00;;;0.90;;
63394;SDS011;49531;-34.520;150.798;2023-07-13T03:33:10;1.17;;;1.08;;
63394;SDS011;49531;-34.520;150.798;2023-07-13T03:35:39;1.70;;;1.10;;
63394;SDS011;49531;-34.520;150.798;2023-07-13T03:38:07;1.10;;;1.00;;
63394;SDS011;49531;-34.520;150.798;2023-07-13T03:40:34;1.30;;;1.10;;
63394;SDS011;49531;-34.520;150.798;2023-07-13T03:43:02;1.70;;;1.08;;
63394;SDS011;49531;-34.520;150.798;2023-07-13T03:45:29;2.17;;;1.02;;
63394;SDS011;49531;-34.520;150.798;2023-07-13T03:47:56;1.13;;;1.02;;
63394;SDS011;49531;-34.520;150.798;2023-07-13T03:50:23;1.23;;;1.05;;
63394;SDS011;49531;-34.520;150.798;2023-07-13T03:52:51;1.88;;;1.10;;
63394;SDS011;49531;-34.520;150.798;2023-07-13T03:55:18;1.10;;;1.00;;
63394;SDS011;49531;-34.520;150.798;2023-07-13T03:57:45;1.55;;;1.00;;
63394;SDS011;49531;-34.520;150.798;2023-07-13T04:00:13;1.48;;;1.10;;
63394;SDS011;49531;-34.520;150.798;2023-07-13T04:02:41;1.20;;;1.10;;
63394;SDS011;49531;-34.520;150.798;2023-07-13T04:05:08;1.05;;;0.98;;
63394;SDS011;49531;-34.520;150.798;2023-07-13T04:07:35;1.20;;;1.10;;
63394;SDS011;49531;-34.520;150.798;2023-07-13T04:10:02;2.17;;;1.00;;
63394;SDS011;49531;-34.520;150.798;2023-07-13T04:12:30;2.17;;;1.08;;
63394;SDS011;49531;-34.520;150.798;2023-07-13T04:14:57;1.65;;;1.20;;
63394;SDS011;49531;-34.520;150.798;2023-07-13T04:17:24;1.30;;;1.00;;
63394;SDS011;49531;-34.520;150.798;2023-07-13T04:19:51;1.00;;;1.00;;
63394;SDS011;49531;-34.520;150.798;2023-07-13T04:22:18;0.98;;;0.98;;
63394;SDS011;49531;-34.520;150.798;2023-07-13T04:24:46;1.15;;;1.00;;
63394;SDS011;49531;-34.520;150.798;2023-07-13T04:27:13;0.90;;;0.90;;
63394;SDS011;49531;-34.520;150.798;2023-07-13T04:29:40;1.00;;;0.98;;
63394;SDS011;49531;-34.520;150.798;2023-07-13T04:32:07;1.10;;;1.00;;
63394;SDS011;49531;-34.520;150.798;2023-07-13T04:34:34;0.93;;;0.90;;
63394;SDS011;49531;-34.520;150.798;2023-07-13T04:37:01;2.15;;;1.13;;
63394;SDS011;49531;-34.520;150.798;2023-07-13T04:39:30;1.23;;;0.98;;
63394;SDS011;49531;-34.520;150.798;2023-07-13T04:41:57;1.50;;;1.00;;
63394;SDS011;49531;-34.520;150.798;2023-07-13T04:44:24;1.55;;;0.95;;
63394;SDS011;49531;-34.520;150.798;2023-07-13T04:46:51;1.00;;;1.00;;
63394;SDS011;49531;-34.520;150.798;2023-07-13T04:49:19;1.08;;;0.98;;
63394;SDS011;49531;-34.520;150.798;2023-07-13T04:51:46;1.05;;;0.95;;
63394;SDS011;49531;-34.520;150.798;2023-07-13T04:54:13;2.45;;;1.10;;
63394;SDS011;49531;-34.520;150.798;2023-07-13T04:56:40;4.38;;;1.10;;
63394;SDS011;49531;-34.520;150.798;2023-07-13T04:59:08;1.15;;;0.98;;
63394;SDS011;49531;-34.520;150.798;2023-07-13T05:01:35;1.25;;;1.10;;
63394;SDS011;49531;-34.520;150.798;2023-07-13T05:04:02;1.15;;;1.02;;
63394;SDS011;49531;-34.520;150.798;2023-07-13T05:06:29;2.28;;;1.00;;
63394;SDS011;49531;-34.520;150.798;2023-07-13T05:08:57;0.90;;;0.90;;
63394;SDS011;49531;-34.520;150.798;2023-07-13T05:11:24;1.77;;;1.00;;
63394;SDS011;49531;-34.520;150.798;2023-07-13T05:13:51;1.27;;;1.02;;
63394;SDS011;49531;-34.520;150.798;2023-07-13T05:16:18;1.60;;;0.85;;
63394;SDS011;49531;-34.520;150.798;2023-07-13T05:18:46;1.92;;;0.90;;
63394;SDS011;49531;-34.520;150.798;2023-07-13T05:21:13;1.23;;;1.02;;
63394;SDS011;49531;-34.520;150.798;2023-07-13T05:23:40;2.08;;;0.80;;
63394;SDS011;49531;-34.520;150.798;2023-07-13T05:26:07;0.93;;;0.90;;
63394;SDS011;49531;-34.520;150.798;2023-07-13T05:28:35;2.20;;;1.00;;
63394;SDS011;49531;-34.520;150.798;2023-07-13T05:31:02;0.93;;;0.90;;
63394;SDS011;49531;-34.520;150.798;2023-07-13T05:33:29;1.05;;;1.00;;
63394;SDS011;49531;-34.520;150.798;2023-07-13T05:35:56;1.20;;;1.05;;
63394;SDS011;49531;-34.520;150.798;2023-07-13T05:38:26;2.67;;;1.00;;
63394;SDS011;49531;-34.520;150.798;2023-07-13T05:40:54;1.10;;;1.00;;
63394;SDS011;49531;-34.520;150.798;2023-07-13T05:43:23;2.60;;;1.10;;
63394;SDS011;49531;-34.520;150.798;2023-07-13T05:45:52;1.98;;;1.10;;
63394;SDS011;49531;-34.520;150.798;2023-07-13T05:48:20;1.10;;;0.98;;
63394;SDS011;49531;-34.520;150.798;2023-07-13T05:50:50;1.10;;;1.00;;
63394;SDS011;49531;-34.520;150.798;2023-07-13T05:53:17;1.10;;;1.00;;
63394;SDS011;49531;-34.520;150.798;2023-07-13T05:55:46;2.88;;;1.00;;
63394;SDS011;49531;-34.520;150.798;2023-07-13T05:58:16;1.20;;;1.00;;
63394;SDS011;49531;-34.520;150.798;2023-07-13T06:00:44;1.20;;;1.10;;
63394;SDS011;49531;-34.520;150.798;2023-07-13T06:03:11;1.00;;;1.00;;
63394;SDS011;49531;-34.520;150.798;2023-07-13T06:05:38;1.08;;;1.00;;
63394;SDS011;49531;-34.520;150.798;2023-07-13T06:08:06;1.50;;;1.05;;
63394;SDS011;49531;-34.520;150.798;2023-07-13T06:10:34;3.65;;;1.10;;
63394;SDS011;49531;-34.520;150.798;2023-07-13T06:13:02;1.08;;;0.98;;
63394;SDS011;49531;-34.520;150.798;2023-07-13T06:15:30;1.00;;;0.90;;
63394;SDS011;49531;-34.520;150.798;2023-07-13T06:17:57;1.90;;;1.00;;
63394;SDS011;49531;-34.520;150.798;2023-07-13T06:20:24;1.70;;;1.10;;
63394;SDS011;49531;-34.520;150.798;2023-07-13T06:22:51;1.15;;;1.05;;
63394;SDS011;49531;-34.520;150.798;2023-07-13T06:25:18;3.33;;;1.10;;
63394;SDS011;49531;-34.520;150.798;2023-07-13T06:27:45;1.33;;;1.10;;
63394;SDS011;49531;-34.520;150.798;2023-07-13T06:30:12;2.60;;;1.10;;
63394;SDS011;49531;-34.520;150.798;2023-07-13T06:32:40;1.50;;;1.08;;
63394;SDS011;49531;-34.520;150.798;2023-07-13T06:35:07;1.10;;;1.02;;
63394;SDS011;49531;-34.520;150.798;2023-07-13T06:37:38;1.17;;;1.00;;
63394;SDS011;49531;-34.520;150.798;2023-07-13T06:40:05;2.45;;;1.10;;
63394;SDS011;49531;-34.520;150.798;2023-07-13T06:42:33;1.52;;;1.00;;
63394;SDS011;49531;-34.520;150.798;2023-07-13T06:45:00;3.28;;;1.30;;
63394;SDS011;49531;-34.520;150.798;2023-07-13T06:47:28;1.83;;;1.20;;
63394;SDS011;49531;-34.520;150.798;2023-07-13T06:49:55;4.18;;;1.17;;
63394;SDS011;49531;-34.520;150.798;2023-07-13T06:52:22;1.38;;;1.10;;
63394;SDS011;49531;-34.520;150.798;2023-07-13T06:54:52;1.65;;;1.30;;
63394;SDS011;49531;-34.520;150.798;2023-07-13T06:57:19;3.90;;;1.20;;
63394;SDS011;49531;-34.520;150.798;2023-07-13T06:59:46;5.32;;;1.35;;
63394;SDS011;49531;-34.520;150.798;2023-07-13T07:02:13;7.20;;;1.25;;
63394;SDS011;49531;-34.520;150.798;2023-07-13T07:04:40;1.73;;;1.13;;
63394;SDS011;49531;-34.520;150.798;2023-07-13T07:07:07;2.58;;;1.10;;
63394;SDS011;49531;-34.520;150.798;2023-07-13T07:09:34;2.85;;;1.20;;
63394;SDS011;49531;-34.520;150.798;2023-07-13T07:12:02;2.28;;;1.10;;
63394;SDS011;49531;-34.520;150.798;2023-07-13T07:14:30;1.90;;;1.10;;
63394;SDS011;49531;-34.520;150.798;2023-07-13T07:16:59;5.13;;;1.13;;
63394;SDS011;49531;-34.520;150.798;2023-07-13T07:19:28;2.47;;;1.25;;
63394;SDS011;49531;-34.520;150.798;2023-07-13T07:21:56;3.63;;;1.30;;
63394;SDS011;49531;-34.520;150.798;2023-07-13T07:24:23;6.05;;;1.40;;
63394;SDS011;49531;-34.520;150.798;2023-07-13T07:26:50;1.98;;;1.20;;
63394;SDS011;49531;-34.520;150.798;2023-07-13T07:32:45;5.25;;;1.23;;
63394;SDS011;49531;-34.520;150.798;2023-07-13T07:35:12;1.50;;;1.20;;
63394;SDS011;49531;-34.520;150.798;2023-07-13T07:37:39;3.67;;;1.27;;
63394;SDS011;49531;-34.520;150.798;2023-07-13T07:40:07;2.70;;;1.30;;
63394;SDS011;49531;-34.520;150.798;2023-07-13T07:42:34;3.40;;;1.30;;
63394;SDS011;49531;-34.520;150.798;2023-07-13T07:45:04;1.50;;;1.40;;
63394;SDS011;49531;-34.520;150.798;2023-07-13T07:47:32;4.13;;;1.40;;
63394;SDS011;49531;-34.520;150.798;2023-07-13T07:49:59;3.75;;;1.40;;
63394;SDS011;49531;-34.520;150.798;2023-07-13T07:52:26;5.47;;;1.45;;
63394;SDS011;49531;-34.520;150.798;2023-07-13T07:54:53;4.90;;;1.35;;
63394;SDS011;49531;-34.520;150.798;2023-07-13T07:57:20;4.45;;;1.27;;
63394;SDS011;49531;-34.520;150.798;2023-07-13T07:59:47;4.55;;;1.50;;
63394;SDS011;49531;-34.520;150.798;2023-07-13T08:02:15;5.45;;;1.40;;
63394;SDS011;49531;-34.520;150.798;2023-07-13T08:04:42;3.15;;;1.40;;
63394;SDS011;49531;-34.520;150.798;2023-07-13T08:07:09;3.78;;;1.50;;
63394;SDS011;49531;-34.520;150.798;2023-07-13T08:09:36;2.72;;;1.40;;
63394;SDS011;49531;-34.520;150.798;2023-07-13T08:12:03;2.22;;;1.33;;
63394;SDS011;49531;-34.520;150.798;2023-07-13T08:14:31;2.50;;;1.40;;
63394;SDS011;49531;-34.520;150.798;2023-07-13T08:16:59;2.50;;;1.42;;
63394;SDS011;49531;-34.520;150.798;2023-07-13T08:19:26;4.65;;;1.50;;
63394;SDS011;49531;-34.520;150.798;2023-07-13T08:21:53;2.30;;;1.40;;
63394;SDS011;49531;-34.520;150.798;2023-07-13T08:24:22;3.25;;;1.38;;
63394;SDS011;49531;-34.520;150.798;2023-07-13T08:26:50;1.88;;;1.23;;
63394;SDS011;49531;-34.520;150.798;2023-07-13T08:29:18;3.58;;;1.50;;
63394;SDS011;49531;-34.520;150.798;2023-07-13T08:31:45;5.68;;;1.50;;
63394;SDS011;49531;-34.520;150.798;2023-07-13T08:34:12;3.22;;;1.50;;
63394;SDS011;49531;-34.520;150.798;2023-07-13T08:36:40;5.82;;;1.60;;
63394;SDS011;49531;-34.520;150.798;2023-07-13T08:39:10;2.40;;;1.60;;
63394;SDS011;49531;-34.520;150.798;2023-07-13T08:41:45;2.47;;;1.60;;
63394;SDS011;49531;-34.520;150.798;2023-07-13T08:44:19;2.15;;;1.60;;
63394;SDS011;49531;-34.520;150.798;2023-07-13T08:46:57;2.10;;;1.50;;
63394;SDS011;49531;-34.520;150.798;2023-07-13T08:49:25;1.90;;;1.50;;
63394;SDS011;49531;-34.520;150.798;2023-07-13T08:51:54;2.83;;;1.50;;
63394;SDS011;49531;-34.520;150.798;2023-07-13T08:54:28;2.33;;;1.52;;
63394;SDS011;49531;-34.520;150.798;2023-07-13T08:56:58;2.60;;;1.50;;
63394;SDS011;49531;-34.520;150.798;2023-07-13T08:59:32;2.78;;;1.30;;
63394;SDS011;49531;-34.520;150.798;2023-07-13T09:02:08;2.70;;;1.50;;
63394;SDS011;49531;-34.520;150.798;2023-07-13T09:04:58;2.45;;;1.40;;
63394;SDS011;49531;-34.520;150.798;2023-07-13T09:07:34;2.05;;;1.40;;
63394;SDS011;49531;-34.520;150.798;2023-07-13T09:10:20;1.98;;;1.35;;
63394;SDS011;49531;-34.520;150.798;2023-07-13T09:15:52;4.50;;;1.50;;
63394;SDS011;49531;-34.520;150.798;2023-07-13T09:18:22;2.38;;;1.50;;
63394;SDS011;49531;-34.520;150.798;2023-07-13T09:20:59;5.32;;;1.40;;
63394;SDS011;49531;-34.520;150.798;2023-07-13T09:23:36;2.42;;;1.45;;
63394;SDS011;49531;-34.520;150.798;2023-07-13T09:26:17;2.22;;;1.30;;
63394;SDS011;49531;-34.520;150.798;2023-07-13T09:28:48;1.98;;;1.45;;
63394;SDS011;49531;-34.520;150.798;2023-07-13T09:31:28;5.25;;;1.40;;
63394;SDS011;49531;-34.520;150.798;2023-07-13T09:34:00;6.05;;;1.40;;
63394;SDS011;49531;-34.520;150.798;2023-07-13T09:36:29;1.65;;;1.30;;
63394;SDS011;49531;-34.520;150.798;2023-07-13T09:41:55;4.07;;;1.40;;
63394;SDS011;49531;-34.520;150.798;2023-07-13T09:44:29;1.67;;;1.20;;
63394;SDS011;49531;-34.520;150.798;2023-07-13T09:46:59;3.22;;;1.30;;
63394;SDS011;49531;-34.520;150.798;2023-07-13T09:49:29;2.08;;;1.40;;
63394;SDS011;49531;-34.520;150.798;2023-07-13T09:52:03;1.63;;;1.20;;
63394;SDS011;49531;-34.520;150.798;2023-07-13T09:54:33;2.00;;;1.20;;
63394;SDS011;49531;-34.520;150.798;2023-07-13T09:57:02;1.50;;;1.20;;
63394;SDS011;49531;-34.520;150.798;2023-07-13T09:59:40;3.00;;;1.30;;
63394;SDS011;49531;-34.520;150.798;2023-07-13T10:04:57;1.75;;;1.30;;
63394;SDS011;49531;-34.520;150.798;2023-07-13T10:07:29;4.07;;;1.40;;
63394;SDS011;49531;-34.520;150.798;2023-07-13T10:09:58;6.55;;;1.27;;
63394;SDS011;49531;-34.520;150.798;2023-07-13T10:12:29;2.60;;;1.42;;
63394;SDS011;49531;-34.520;150.798;2023-07-13T10:15:01;3.40;;;1.38;;
63394;SDS011;49531;-34.520;150.798;2023-07-13T10:17:30;3.55;;;1.48;;
63394;SDS011;49531;-34.520;150.798;2023-07-13T10:20:00;1.65;;;1.20;;
63394;SDS011;49531;-34.520;150.798;2023-07-13T10:22:36;2.35;;;1.10;;
63394;SDS011;49531;-34.520;150.798;2023-07-13T10:25:17;1.52;;;1.23;;
63394;SDS011;49531;-34.520;150.798;2023-07-13T10:27:49;2.45;;;1.10;;
63394;SDS011;49531;-34.520;150.798;2023-07-13T10:30:20;1.27;;;1.17;;
63394;SDS011;49531;-34.520;150.798;2023-07-13T10:32:51;1.30;;;1.20;;
63394;SDS011;49531;-34.520;150.798;2023-07-13T10:35:19;1.35;;;1.10;;
63394;SDS011;49531;-34.520;150.798;2023-07-13T10:37:52;3.50;;;1.08;;
63394;SDS011;49531;-34.520;150.798;2023-07-13T10:40:31;1.77;;;1.30;;
63394;SDS011;49531;-34.520;150.798;2023-07-13T10:43:04;1.67;;;1.10;;
63394;SDS011;49531;-34.520;150.798;2023-07-13T10:45:40;2.22;;;1.20;;
63394;SDS011;49531;-34.520;150.798;2023-07-13T10:48:08;1.50;;;1.08;;
63394;SDS011;49531;-34.520;150.798;2023-07-13T10:50:40;1.10;;;1.00;;
63394;SDS011;49531;-34.520;150.798;2023-07-13T10:53:20;2.38;;;1.33;;
63394;SDS011;49531;-34.520;150.798;2023-07-13T10:55:55;3.10;;;1.20;;
63394;SDS011;49531;-34.520;150.798;2023-07-13T10:58:31;3.38;;;1.30;;
63394;SDS011;49531;-34.520;150.798;2023-07-13T11:01:04;1.52;;;1.00;;
63394;SDS011;49531;-34.520;150.798;2023-07-13T11:03:37;1.83;;;1.10;;
63394;SDS011;49531;-34.520;150.798;2023-07-13T11:06:29;1.42;;;1.20;;
63394;SDS011;49531;-34.520;150.798;2023-07-13T11:11:45;3.05;;;1.20;;
63394;SDS011;49531;-34.520;150.798;2023-07-13T11:14:28;1.95;;;1.20;;
63394;SDS011;49531;-34.520;150.798;2023-07-13T11:23:09;3.13;;;1.10;;
63394;SDS011;49531;-34.520;150.798;2023-07-13T11:25:46;1.52;;;1.17;;
63394;SDS011;49531;-34.520;150.798;2023-07-13T11:28:16;1.15;;;1.05;;
63394;SDS011;49531;-34.520;150.798;2023-07-13T11:30:53;2.33;;;1.10;;
63394;SDS011;49531;-34.520;150.798;2023-07-13T11:33:45;3.35;;;1.23;;
63394;SDS011;49531;-34.520;150.798;2023-07-13T11:36:19;1.95;;;1.20;;
63394;SDS011;49531;-34.520;150.798;2023-07-13T11:38:54;1.40;;;1.20;;
63394;SDS011;49531;-34.520;150.798;2023-07-13T11:41:32;1.35;;;1.13;;
63394;SDS011;49531;-34.520;150.798;2023-07-13T11:44:12;1.20;;;1.10;;
63394;SDS011;49531;-34.520;150.798;2023-07-13T11:46:45;3.00;;;1.00;;
63394;SDS011;49531;-34.520;150.798;2023-07-13T11:49:17;1.40;;;1.13;;
63394;SDS011;49531;-34.520;150.798;2023-07-13T11:51:45;2.15;;;1.45;;
63394;SDS011;49531;-34.520;150.798;2023-07-13T11:54:22;1.83;;;1.30;;
63394;SDS011;49531;-34.520;150.798;2023-07-13T11:57:01;1.42;;;1.23;;
63394;SDS011;49531;-34.520;150.798;2023-07-13T11:59:32;3.08;;;1.30;;
63394;SDS011;49531;-34.520;150.798;2023-07-13T12:02:14;1.67;;;1.30;;
63394;SDS011;49531;-34.520;150.798;2023-07-13T12:04:49;2.45;;;1.20;;
63394;SDS011;49531;-34.520;150.798;2023-07-13T12:07:19;2.40;;;1.40;;
63394;SDS011;49531;-34.520;150.798;2023-07-13T12:09:46;2.78;;;1.20;;
63394;SDS011;49531;-34.520;150.798;2023-07-13T12:12:18;2.05;;;1.15;;
63394;SDS011;49531;-34.520;150.798;2023-07-13T12:14:51;1.38;;;1.20;;
63394;SDS011;49531;-34.520;150.798;2023-07-13T12:17:19;1.58;;;1.13;;
63394;SDS011;49531;-34.520;150.798;2023-07-13T12:19:49;2.17;;;1.10;;
63394;SDS011;49531;-34.520;150.798;2023-07-13T12:22:19;1.20;;;1.10;;
63394;SDS011;49531;-34.520;150.798;2023-07-13T12:24:48;1.60;;;1.20;;
63394;SDS011;49531;-34.520;150.798;2023-07-13T12:27:23;1.70;;;1.17;;
63394;SDS011;49531;-34.520;150.798;2023-07-13T12:30:15;1.30;;;1.20;;
63394;SDS011;49531;-34.520;150.798;2023-07-13T12:33:12;1.15;;;1.05;;
63394;SDS011;49531;-34.520;150.798;2023-07-13T12:35:40;2.17;;;1.15;;
63394;SDS011;49531;-34.520;150.798;2023-07-13T12:38:12;1.20;;;1.10;;
63394;SDS011;49531;-34.520;150.798;2023-07-13T12:40:40;1.52;;;1.20;;
63394;SDS011;49531;-34.520;150.798;2023-07-13T12:43:11;1.20;;;1.10;;
63394;SDS011;49531;-34.520;150.798;2023-07-13T12:45:54;1.30;;;1.17;;
63394;SDS011;49531;-34.520;150.798;2023-07-13T12:48:24;2.13;;;1.20;;
63394;SDS011;49531;-34.520;150.798;2023-07-13T12:50:53;1.30;;;1.20;;
63394;SDS011;49531;-34.520;150.798;2023-07-13T12:53:22;2.25;;;1.10;;
63394;SDS011;49531;-34.520;150.798;2023-07-13T12:55:57;1.30;;;1.20;;
63394;SDS011;49531;-34.520;150.798;2023-07-13T12:58:36;2.25;;;1.20;;
63394;SDS011;49531;-34.520;150.798;2023-07-13T13:01:10;1.75;;;1.27;;
63394;SDS011;49531;-34.520;150.798;2023-07-13T13:03:44;1.20;;;1.10;;
63394;SDS011;49531;-34.520;150.798;2023-07-13T13:06:23;2.20;;;1.25;;
63394;SDS011;49531;-34.520;150.798;2023-07-13T13:08:53;1.17;;;1.10;;
63394;SDS011;49531;-34.520;150.798;2023-07-13T13:11:23;1.63;;;1.10;;
63394;SDS011;49531;-34.520;150.798;2023-07-13T13:13:52;1.38;;;1.27;;
63394;SDS011;49531;-34.520;150.798;2023-07-13T13:16:21;2.10;;;1.27;;
63394;SDS011;49531;-34.520;150.798;2023-07-13T13:18:59;2.00;;;1.20;;
63394;SDS011;49531;-34.520;150.798;2023-07-13T13:21:39;1.48;;;1.20;;
63394;SDS011;49531;-34.520;150.798;2023-07-13T13:24:10;1.52;;;1.20;;
63394;SDS011;49531;-34.520;150.798;2023-07-13T13:26:40;1.42;;;1.13;;
63394;SDS011;49531;-34.520;150.798;2023-07-13T13:29:11;1.70;;;1.20;;
63394;SDS011;49531;-34.520;150.798;2023-07-13T13:31:42;1.10;;;1.00;;
63394;SDS011;49531;-34.520;150.798;2023-07-13T13:34:10;1.20;;;1.10;;
63394;SDS011;49531;-34.520;150.798;2023-07-13T13:36:39;1.10;;;1.00;;
63394;SDS011;49531;-34.520;150.798;2023-07-13T13:39:19;1.30;;;1.20;;
63394;SDS011;49531;-34.520;150.798;2023-07-13T13:41:49;1.45;;;1.20;;
63394;SDS011;49531;-34.520;150.798;2023-07-13T13:44:19;2.40;;;1.20;;
63394;SDS011;49531;-34.520;150.798;2023-07-13T13:46:48;1.35;;;1.17;;
63394;SDS011;49531;-34.520;150.798;2023-07-13T13:49:22;2.13;;;1.30;;
63394;SDS011;49531;-34.520;150.798;2023-07-13T13:51:51;1.40;;;1.23;;
63394;SDS011;49531;-34.520;150.798;2023-07-13T13:54:20;1.42;;;1.20;;
63394;SDS011;49531;-34.520;150.798;2023-07-13T13:56:50;1.75;;;1.20;;
63394;SDS011;49531;-34.520;150.798;2023-07-13T13:59:18;1.27;;;1.10;;
63394;SDS011;49531;-34.520;150.798;2023-07-13T14:01:46;2.17;;;1.05;;
63394;SDS011;49531;-34.520;150.798;2023-07-13T14:04:15;1.30;;;1.20;;
63394;SDS011;49531;-34.520;150.798;2023-07-13T14:06:45;1.95;;;1.20;;
63394;SDS011;49531;-34.520;150.798;2023-07-13T14:09:14;1.55;;;1.20;;
63394;SDS011;49531;-34.520;150.798;2023-07-13T14:11:43;1.50;;;1.20;;
63394;SDS011;49531;-34.520;150.798;2023-07-13T14:14:12;1.48;;;1.20;;
63394;SDS011;49531;-34.520;150.798;2023-07-13T14:16:43;1.48;;;1.17;;
63394;SDS011;49531;-34.520;150.798;2023-07-13T14:19:12;1.20;;;1.10;;
63394;SDS011;49531;-34.520;150.798;2023-07-13T14:21:41;1.80;;;1.30;;
63394;SDS011;49531;-34.520;150.798;2023-07-13T14:24:08;1.67;;;1.13;;
63394;SDS011;49531;-34.520;150.798;2023-07-13T14:26:36;1.27;;;1.10;;
63394;SDS011;49531;-34.520;150.798;2023-07-13T14:29:10;1.20;;;1.10;;
63394;SDS011;49531;-34.520;150.798;2023-07-13T14:31:43;1.25;;;1.10;;
63394;SDS011;49531;-34.520;150.798;2023-07-13T14:34:11;1.70;;;1.20;;
63394;SDS011;49531;-34.520;150.798;2023-07-13T14:36:41;1.58;;;1.20;;
63394;SDS011;49531;-34.520;150.798;2023-07-13T14:39:12;2.05;;;1.40;;
63394;SDS011;49531;-34.520;150.798;2023-07-13T14:41:42;1.10;;;1.00;;
63394;SDS011;49531;-34.520;150.798;2023-07-13T14:44:13;1.45;;;1.13;;
63394;SDS011;49531;-34.520;150.798;2023-07-13T14:46:42;1.38;;;1.10;;